Time;durP1;ratioP1;P1;durP2;ratioP2;P2;SDS_P1;SDS_P2;PMS_P1;PMS_P2;Temp;Humidity;BMP_temperature;BMP_pressure;BME280_temperature;BME280_humidity;BME280_pressure;Samples;Min_cycle;Max_cycle;Signal;HPM_P1;HPM_P2
2021/11/08 00:02:26;;;;;;;5.90;2.15;;;;;;;;;;5033498;28;20219;-57
2021/11/08 00:04:53;;;;;;;6.93;2.55;;;;;;;;;;5033261;28;20209;-56
2021/11/08 00:07:20;;;;;;;6.00;2.10;;;;;;;;;;5033818;28;20210;-55
2021/11/08 00:09:48;;;;;;;14.52;2.55;;;;;;;;;;5033529;28;20221;-57
2021/11/08 00:12:17;;;;;;;7.75;2.78;;;;;;;;;;5033774;28;20201;-57
2021/11/08 00:14:45;;;;;;;7.95;2.45;;;;;;;;;;5033294;28;20701;-57
2021/11/08 00:17:21;;;;;;;6.50;2.30;;;;;;;;;;5033318;28;20227;-56
2021/11/08 00:20:03;;;;;;;13.60;3.30;;;;;;;;;;5033318;28;20186;-56
2021/11/08 00:22:32;;;;;;;8.18;2.75;;;;;;;;;;5033211;28;20234;-57
2021/11/08 00:25:01;;;;;;;14.75;2.75;;;;;;;;;;5035787;28;20735;-56
2021/11/08 00:27:29;;;;;;;8.50;2.58;;;;;;;;;;5037311;28;20583;-56
2021/11/08 00:29:57;;;;;;;6.88;2.00;;;;;;;;;;5037329;28;20275;-57
2021/11/08 00:32:25;;;;;;;6.63;2.22;;;;;;;;;;5036843;28;20221;-56
2021/11/08 00:34:54;;;;;;;10.98;2.50;;;;;;;;;;5036804;28;20202;-56
2021/11/08 00:37:22;;;;;;;8.18;2.40;;;;;;;;;;5037126;28;20624;-56
2021/11/08 00:39:50;;;;;;;11.07;3.53;;;;;;;;;;5036878;28;20202;-57
2021/11/08 00:42:17;;;;;;;7.18;2.05;;;;;;;;;;5036815;28;20260;-57
2021/11/08 00:44:44;;;;;;;8.10;2.40;;;;;;;;;;5037312;28;20202;-57
2021/11/08 00:47:11;;;;;;;9.60;2.53;;;;;;;;;;5037786;28;20210;-56
2021/11/08 00:49:40;;;;;;;10.25;2.40;;;;;;;;;;5038306;28;20584;-56
2021/11/08 00:52:10;;;;;;;11.18;2.85;;;;;;;;;;5037078;28;20206;-57
2021/11/08 00:54:38;;;;;;;6.43;2.30;;;;;;;;;;5036713;28;20225;-56
2021/11/08 00:57:08;;;;;;;11.98;2.17;;;;;;;;;;5038089;28;20234;-55
2021/11/08 00:59:36;;;;;;;10.77;2.80;;;;;;;;;;5038642;28;20190;-55
2021/11/08 01:02:04;;;;;;;11.82;4.20;;;;;;;;;;5038577;28;20202;-56
2021/11/08 01:04:31;;;;;;;6.45;2.20;;;;;;;;;;5038865;28;20238;-56
2021/11/08 01:07:00;;;;;;;7.00;2.50;;;;;;;;;;5038177;28;20210;-56
2021/11/08 01:09:30;;;;;;;7.65;2.83;;;;;;;;;;5038362;28;20206;-57
2021/11/08 01:11:58;;;;;;;11.85;2.75;;;;;;;;;;5039272;28;20206;-56
2021/11/08 01:14:25;;;;;;;10.60;2.40;;;;;;;;;;5038786;28;20225;-57
2021/11/08 01:16:56;;;;;;;11.93;3.38;;;;;;;;;;5039568;28;20554;-56
2021/11/08 01:19:25;;;;;;;11.32;3.17;;;;;;;;;;5040387;28;20187;-56
2021/11/08 01:21:52;;;;;;;5.65;1.60;;;;;;;;;;5040622;28;20217;-57
2021/11/08 01:24:21;;;;;;;10.48;3.20;;;;;;;;;;5040874;28;20226;-55
2021/11/08 01:26:49;;;;;;;11.18;3.03;;;;;;;;;;5040257;28;20697;-57
2021/11/08 01:29:17;;;;;;;10.43;2.50;;;;;;;;;;5039275;28;20662;-55
2021/11/08 01:31:44;;;;;;;6.22;2.28;;;;;;;;;;5036606;28;20225;-56
2021/11/08 01:34:12;;;;;;;10.57;2.92;;;;;;;;;;5036225;28;20696;-57
2021/11/08 01:36:41;;;;;;;9.20;2.20;;;;;;;;;;5035225;28;20206;-56
2021/11/08 01:39:16;;;;;;;13.77;2.70;;;;;;;;;;5036282;28;20255;-56
2021/11/08 01:41:43;;;;;;;10.30;2.35;;;;;;;;;;5036003;28;20268;-57
2021/11/08 01:44:12;;;;;;;12.18;2.53;;;;;;;;;;5035825;28;20226;-56
2021/11/08 01:46:39;;;;;;;10.73;2.47;;;;;;;;;;5035667;28;20574;-57
2021/11/08 01:49:06;;;;;;;8.63;2.78;;;;;;;;;;5035853;28;20209;-57
2021/11/08 01:51:35;;;;;;;7.10;2.55;;;;;;;;;;5035947;28;20614;-56
2021/11/08 01:54:03;;;;;;;7.65;2.00;;;;;;;;;;5035986;28;20230;-56
2021/11/08 01:56:31;;;;;;;7.75;2.15;;;;;;;;;;5035468;28;20202;-57
2021/11/08 01:58:58;;;;;;;6.93;2.38;;;;;;;;;;5035536;28;20203;-56
2021/11/08 02:01:27;;;;;;;8.23;2.53;;;;;;;;;;5035607;28;20646;-55
2021/11/08 02:03:54;;;;;;;6.40;2.40;;;;;;;;;;5035262;28;20245;-56
2021/11/08 02:06:22;;;;;;;10.30;2.70;;;;;;;;;;5035187;28;20198;-56
2021/11/08 02:08:49;;;;;;;9.38;2.40;;;;;;;;;;5035579;28;20202;-57
2021/11/08 02:11:20;;;;;;;15.73;2.70;;;;;;;;;;5035345;28;20206;-56
2021/11/08 02:13:47;;;;;;;12.00;3.53;;;;;;;;;;5034957;28;20313;-56
2021/11/08 02:16:15;;;;;;;9.57;2.55;;;;;;;;;;5035147;28;20217;-56
2021/11/08 02:18:45;;;;;;;9.05;2.70;;;;;;;;;;5035629;28;20241;-57
2021/11/08 02:21:14;;;;;;;10.85;3.03;;;;;;;;;;5036288;28;20204;-56
2021/11/08 02:23:43;;;;;;;5.95;2.30;;;;;;;;;;5035177;28;20237;-56
2021/11/08 02:26:13;;;;;;;11.52;2.75;;;;;;;;;;5035551;28;20205;-57
2021/11/08 02:28:44;;;;;;;11.02;2.20;;;;;;;;;;5035225;28;20249;-56
2021/11/08 02:31:13;;;;;;;8.38;3.08;;;;;;;;;;5035035;28;20217;-56
2021/11/08 02:33:41;;;;;;;14.40;2.75;;;;;;;;;;5039344;28;20272;-55
2021/11/08 02:36:08;;;;;;;8.68;2.50;;;;;;;;;;5042150;28;20198;-57
2021/11/08 02:38:41;;;;;;;8.05;2.33;;;;;;;;;;5042173;28;20206;-56
2021/11/08 02:41:09;;;;;;;10.00;3.60;;;;;;;;;;5042885;28;20183;-56
2021/11/08 02:43:37;;;;;;;9.27;2.65;;;;;;;;;;5046549;28;20290;-56
2021/11/08 02:46:08;;;;;;;8.82;2.63;;;;;;;;;;5043785;28;20202;-56
2021/11/08 02:48:36;;;;;;;12.18;2.95;;;;;;;;;;5042948;28;20193;-55
2021/11/08 02:51:12;;;;;;;7.80;2.92;;;;;;;;;;5043628;28;20217;-55
2021/11/08 02:53:42;;;;;;;10.85;2.47;;;;;;;;;;5042281;28;20279;-57
2021/11/08 02:56:10;;;;;;;8.02;2.40;;;;;;;;;;5042270;28;20705;-57
2021/11/08 02:58:39;;;;;;;11.25;2.83;;;;;;;;;;5041656;28;20320;-57
2021/11/08 03:01:06;;;;;;;9.40;2.50;;;;;;;;;;5038581;28;20227;-56
2021/11/08 03:03:38;;;;;;;6.07;1.98;;;;;;;;;;5038596;28;20226;-56
2021/11/08 03:06:12;;;;;;;12.18;2.92;;;;;;;;;;5042471;28;20190;-57
2021/11/08 03:08:41;;;;;;;8.05;1.95;;;;;;;;;;5039098;28;20553;-56
2021/11/08 03:11:08;;;;;;;6.95;2.35;;;;;;;;;;5036897;28;20206;-56
2021/11/08 03:13:38;;;;;;;9.30;2.35;;;;;;;;;;5035202;28;20737;-57
2021/11/08 03:16:11;;;;;;;5.20;2.90;;;;;;;;;;5034848;28;20201;-56
2021/11/08 03:18:40;;;;;;;11.10;2.70;;;;;;;;;;5034152;28;20190;-56
2021/11/08 03:21:15;;;;;;;9.88;3.17;;;;;;;;;;5034182;28;20202;-57
2021/11/08 03:23:45;;;;;;;9.30;2.85;;;;;;;;;;5034060;28;20229;-57
2021/11/08 03:26:25;;;;;;;8.95;2.85;;;;;;;;;;5034717;28;20296;-57
2021/11/08 03:28:53;;;;;;;9.52;3.22;;;;;;;;;;5034486;28;20190;-57
2021/11/08 03:31:20;;;;;;;10.80;2.20;;;;;;;;;;5034503;28;20210;-56
2021/11/08 03:33:48;;;;;;;9.10;2.60;;;;;;;;;;5034260;28;20588;-57
2021/11/08 03:36:16;;;;;;;16.23;2.88;;;;;;;;;;5033832;28;20222;-56
2021/11/08 03:38:45;;;;;;;7.75;2.75;;;;;;;;;;5033590;28;20206;-56
2021/11/08 03:41:12;;;;;;;10.27;3.80;;;;;;;;;;5033510;28;20234;-58
2021/11/08 03:43:40;;;;;;;9.05;2.70;;;;;;;;;;5033301;28;20226;-58
2021/11/08 03:46:08;;;;;;;8.90;2.65;;;;;;;;;;5033398;28;20198;-57
2021/11/08 03:48:35;;;;;;;14.32;3.22;;;;;;;;;;5033396;28;20202;-56
2021/11/08 03:51:03;;;;;;;8.40;2.25;;;;;;;;;;5033573;28;20213;-57
2021/11/08 03:53:30;;;;;;;7.55;2.20;;;;;;;;;;5033384;28;20563;-57
2021/11/08 03:55:59;;;;;;;7.10;2.13;;;;;;;;;;5033251;28;20202;-56
2021/11/08 03:58:27;;;;;;;7.45;2.95;;;;;;;;;;5032885;28;20214;-55
2021/11/08 04:00:54;;;;;;;7.35;2.50;;;;;;;;;;5033435;28;20202;-56
2021/11/08 04:03:22;;;;;;;8.20;3.05;;;;;;;;;;5033061;28;20222;-56
2021/11/08 04:08:51;;;;;;;11.90;2.78;;;;;;;;;;5091477;27;20550;-57
2021/11/08 04:11:18;;;;;;;8.38;3.00;;;;;;;;;;5091010;28;20555;-58
2021/11/08 04:13:46;;;;;;;7.82;2.30;;;;;;;;;;5104993;28;20227;-57
2021/11/08 04:16:15;;;;;;;6.47;2.70;;;;;;;;;;5099305;28;20595;-58
2021/11/08 04:18:47;;;;;;;9.80;2.80;;;;;;;;;;5107189;28;20204;-57
2021/11/08 04:21:15;;;;;;;5.70;2.30;;;;;;;;;;5114906;22;20229;-56
2021/11/08 04:23:43;;;;;;;11.43;2.60;;;;;;;;;;5050500;28;20557;-57
2021/11/08 04:26:13;;;;;;;10.40;2.30;;;;;;;;;;5050364;28;20255;-57
2021/11/08 04:28:40;;;;;;;9.27;2.50;;;;;;;;;;5050372;28;20209;-56
2021/11/08 04:31:09;;;;;;;9.48;3.50;;;;;;;;;;5050276;28;20225;-56
2021/11/08 04:33:43;;;;;;;7.50;2.10;;;;;;;;;;5050204;28;20197;-56
2021/11/08 04:36:29;;;;;;;7.93;2.42;;;;;;;;;;5049922;28;20280;-57
2021/11/08 04:39:09;;;;;;;6.97;2.40;;;;;;;;;;5049889;28;20642;-57
2021/11/08 04:41:44;;;;;;;6.70;2.35;;;;;;;;;;5050139;28;20602;-58
2021/11/08 04:44:35;;;;;;;10.80;2.97;;;;;;;;;;5050070;28;20259;-57
2021/11/08 04:47:28;;;;;;;6.07;2.00;;;;;;;;;;5050096;28;20292;-56
2021/11/08 04:50:02;;;;;;;6.55;2.33;;;;;;;;;;5050062;28;20186;-56
2021/11/08 04:52:41;;;;;;;6.95;2.65;;;;;;;;;;5049851;28;20217;-56
2021/11/08 04:55:15;;;;;;;8.52;2.40;;;;;;;;;;5049942;28;20568;-56
2021/11/08 04:58:01;;;;;;;8.95;3.22;;;;;;;;;;5049809;28;20557;-56
2021/11/08 05:28:30;;;;;;;12.25;2.80;;;;;;;;;;5031563;28;20253;-57
2021/11/08 05:30:59;;;;;;;14.35;2.95;;;;;;;;;;5035798;28;20273;-57
2021/11/08 05:33:26;;;;;;;9.57;3.03;;;;;;;;;;5035593;28;20233;-57
2021/11/08 05:35:53;;;;;;;6.75;2.15;;;;;;;;;;5035781;28;20247;-56
2021/11/08 05:38:21;;;;;;;8.57;2.97;;;;;;;;;;5036239;28;20198;-56
2021/11/08 05:40:48;;;;;;;7.57;2.30;;;;;;;;;;5037090;28;20217;-56
2021/11/08 05:43:15;;;;;;;5.80;2.53;;;;;;;;;;5035651;28;20582;-55
2021/11/08 05:45:42;;;;;;;3.80;2.00;;;;;;;;;;5035598;28;20214;-56
2021/11/08 05:48:11;;;;;;;10.68;3.22;;;;;;;;;;5035505;28;20222;-57
2021/11/08 05:50:40;;;;;;;7.65;2.70;;;;;;;;;;5035151;28;20206;-56
2021/11/08 05:53:08;;;;;;;13.38;2.90;;;;;;;;;;5035114;28;20675;-57
2021/11/08 05:55:36;;;;;;;9.82;2.75;;;;;;;;;;5035465;28;20206;-57
2021/11/08 05:58:25;;;;;;;10.38;2.75;;;;;;;;;;5035118;28;20571;-57
2021/11/08 06:50:57;;;;;;;8.93;2.97;;;;;;;;;;5023238;28;20208;-58
2021/11/08 06:53:25;;;;;;;10.40;3.00;;;;;;;;;;5034437;28;20198;-58
2021/11/08 06:55:54;;;;;;;7.20;2.95;;;;;;;;;;5034134;28;20213;-58
2021/11/08 06:58:22;;;;;;;11.82;3.58;;;;;;;;;;5034301;28;20205;-56
2021/11/08 07:00:50;;;;;;;11.73;3.20;;;;;;;;;;5034019;28;20296;-57
2021/11/08 07:03:18;;;;;;;8.68;3.28;;;;;;;;;;5034530;28;20264;-58
2021/11/08 07:05:45;;;;;;;7.45;2.97;;;;;;;;;;5034092;28;20285;-58
2021/11/08 07:08:13;;;;;;;6.88;2.85;;;;;;;;;;5033610;28;20236;-57
2021/11/08 07:10:42;;;;;;;10.52;3.05;;;;;;;;;;5034019;28;20213;-58
2021/11/08 07:13:09;;;;;;;9.32;2.45;;;;;;;;;;5034488;28;20250;-57
2021/11/08 07:15:36;;;;;;;14.55;3.60;;;;;;;;;;5034118;28;20316;-57
2021/11/08 07:18:04;;;;;;;4.90;2.97;;;;;;;;;;5033444;28;20671;-58
2021/11/08 07:20:31;;;;;;;8.10;2.90;;;;;;;;;;5033233;28;20209;-58
2021/11/08 07:22:59;;;;;;;6.05;2.97;;;;;;;;;;5033069;28;20230;-58
2021/11/08 07:25:26;;;;;;;8.98;3.30;;;;;;;;;;5033606;28;20748;-58
2021/11/08 07:27:55;;;;;;;7.75;2.40;;;;;;;;;;5033149;28;20221;-58
2021/11/08 07:30:25;;;;;;;12.95;3.20;;;;;;;;;;5033252;28;20285;-58
2021/11/08 07:32:52;;;;;;;8.75;2.33;;;;;;;;;;5033041;28;20233;-58
2021/11/08 07:35:20;;;;;;;8.65;2.30;;;;;;;;;;5033420;28;20209;-58
2021/11/08 07:37:47;;;;;;;9.75;2.40;;;;;;;;;;5033220;28;20198;-59
2021/11/08 07:40:15;;;;;;;7.80;3.10;;;;;;;;;;5033073;28;20202;-58
2021/11/08 07:42:42;;;;;;;11.57;3.15;;;;;;;;;;5032680;28;20594;-58
2021/11/08 07:45:11;;;;;;;10.45;4.25;;;;;;;;;;5033160;28;20202;-58
2021/11/08 07:47:39;;;;;;;6.85;2.92;;;;;;;;;;5033247;28;20233;-58
2021/11/08 07:50:07;;;;;;;12.63;3.10;;;;;;;;;;5033180;28;20202;-59
2021/11/08 07:52:35;;;;;;;10.05;3.58;;;;;;;;;;5033118;28;20248;-58
2021/11/08 07:55:02;;;;;;;6.40;2.70;;;;;;;;;;5032971;28;20206;-58
2021/11/08 07:57:29;;;;;;;11.90;2.63;;;;;;;;;;5032702;28;20201;-58
2021/11/08 07:59:57;;;;;;;8.93;3.20;;;;;;;;;;5033135;28;20205;-57
2021/11/08 08:02:26;;;;;;;13.25;3.10;;;;;;;;;;5032604;28;20737;-58
2021/11/08 08:04:53;;;;;;;11.30;2.90;;;;;;;;;;5033645;28;20225;-57
2021/11/08 08:07:20;;;;;;;6.82;2.58;;;;;;;;;;5032897;28;20210;-58
2021/11/08 08:09:47;;;;;;;13.90;2.85;;;;;;;;;;5032575;28;20198;-57
2021/11/08 08:12:15;;;;;;;8.18;2.60;;;;;;;;;;5032973;28;20596;-59
2021/11/08 08:14:42;;;;;;;8.48;3.05;;;;;;;;;;5033191;28;20206;-57
2021/11/08 08:17:09;;;;;;;10.10;2.80;;;;;;;;;;5032489;28;20198;-58
2021/11/08 08:19:38;;;;;;;9.57;2.80;;;;;;;;;;5032854;28;20206;-57
2021/11/08 08:22:06;;;;;;;11.50;2.80;;;;;;;;;;5033409;28;20233;-58
2021/11/08 08:24:33;;;;;;;10.35;2.53;;;;;;;;;;5032958;28;20720;-57
2021/11/08 08:27:03;;;;;;;7.53;2.60;;;;;;;;;;5032469;28;20202;-57
2021/11/08 08:29:31;;;;;;;7.05;2.38;;;;;;;;;;5032452;28;20635;-57
2021/11/08 08:31:58;;;;;;;6.60;3.33;;;;;;;;;;5032780;28;20725;-57
2021/11/08 08:34:29;;;;;;;10.25;3.28;;;;;;;;;;5032978;28;20202;-57
2021/11/08 08:36:58;;;;;;;11.43;2.75;;;;;;;;;;5032777;28;20244;-56
2021/11/08 08:39:26;;;;;;;14.48;3.38;;;;;;;;;;5032823;28;20202;-58
2021/11/08 08:41:54;;;;;;;7.10;3.00;;;;;;;;;;5032805;28;20226;-58
2021/11/08 08:44:21;;;;;;;11.98;2.80;;;;;;;;;;5033086;28;20206;-59
2021/11/08 08:46:49;;;;;;;8.98;2.92;;;;;;;;;;5032681;28;20205;-59
2021/11/08 08:49:17;;;;;;;8.05;2.72;;;;;;;;;;5032458;28;20229;-57
2021/11/08 08:51:45;;;;;;;9.57;2.75;;;;;;;;;;5032775;28;20220;-57
2021/11/08 08:54:14;;;;;;;8.48;2.83;;;;;;;;;;5033949;28;20198;-58
2021/11/08 08:56:41;;;;;;;9.63;2.95;;;;;;;;;;5036123;28;20202;-58
2021/11/08 08:59:09;;;;;;;11.13;3.17;;;;;;;;;;5036447;28;20209;-58
2021/11/08 09:01:36;;;;;;;7.68;2.88;;;;;;;;;;5036478;28;20233;-58
2021/11/08 09:04:04;;;;;;;10.02;3.17;;;;;;;;;;5036335;28;20697;-58
2021/11/08 09:06:31;;;;;;;12.07;4.28;;;;;;;;;;5036501;28;20214;-58
2021/11/08 09:08:59;;;;;;;10.65;3.05;;;;;;;;;;5035633;28;20221;-59
2021/11/08 09:11:27;;;;;;;9.05;3.30;;;;;;;;;;5035983;28;20233;-58
2021/11/08 09:13:58;;;;;;;10.63;3.67;;;;;;;;;;5036122;28;20202;-58
2021/11/08 09:16:25;;;;;;;12.52;3.42;;;;;;;;;;5035718;28;20671;-59
2021/11/08 09:18:53;;;;;;;10.25;3.83;;;;;;;;;;5035325;28;20293;-59
2021/11/08 09:21:21;;;;;;;7.07;2.80;;;;;;;;;;5035349;28;20234;-59
2021/11/08 09:23:50;;;;;;;14.32;4.35;;;;;;;;;;5035851;28;20228;-59
2021/11/08 09:26:18;;;;;;;12.93;3.20;;;;;;;;;;5035647;28;20199;-58
2021/11/08 09:28:47;;;;;;;9.98;3.55;;;;;;;;;;5035714;28;20223;-58
2021/11/08 09:31:14;;;;;;;13.67;3.83;;;;;;;;;;5035645;28;20226;-60
2021/11/08 09:33:42;;;;;;;9.35;3.25;;;;;;;;;;5035807;28;20437;-59
2021/11/08 09:36:10;;;;;;;8.10;3.20;;;;;;;;;;5035261;28;20198;-59
2021/11/08 09:38:39;;;;;;;11.37;5.13;;;;;;;;;;5035762;28;20470;-58
2021/11/08 09:41:09;;;;;;;11.33;3.63;;;;;;;;;;5035043;28;20930;-58
2021/11/08 09:43:37;;;;;;;11.47;3.40;;;;;;;;;;5035487;28;20425;-58
2021/11/08 09:46:06;;;;;;;12.90;3.70;;;;;;;;;;5035145;28;20448;-59
2021/11/08 09:48:38;;;;;;;11.90;2.93;;;;;;;;;;5035340;28;20481;-58
2021/11/08 09:51:05;;;;;;;10.63;3.67;;;;;;;;;;5035046;28;20990;-58
2021/11/08 09:53:32;;;;;;;7.30;3.23;;;;;;;;;;5035348;28;20898;-58
2021/11/08 09:56:01;;;;;;;8.17;3.90;;;;;;;;;;5035357;28;20452;-58
2021/11/08 09:58:28;;;;;;;8.17;2.83;;;;;;;;;;5035190;28;20452;-59
2021/11/08 10:00:59;;;;;;;12.60;3.20;;;;;;;;;;5034829;28;20440;-60
2021/11/08 10:03:30;;;;;;;8.40;3.00;;;;;;;;;;5034651;28;20467;-59
2021/11/08 10:05:58;;;;;;;9.37;3.00;;;;;;;;;;5034766;28;20967;-59
2021/11/08 10:08:27;;;;;;;6.70;3.00;;;;;;;;;;5034672;28;20484;-59
2021/11/08 10:10:56;;;;;;;7.03;3.10;;;;;;;;;;5034790;28;20448;-58
2021/11/08 10:13:25;;;;;;;10.90;3.30;;;;;;;;;;5034606;28;20942;-59
2021/11/08 10:15:53;;;;;;;10.63;2.93;;;;;;;;;;5034565;28;20452;-59
2021/11/08 10:18:21;;;;;;;13.90;4.53;;;;;;;;;;5035089;28;20456;-58
2021/11/08 10:20:55;;;;;;;7.90;3.27;;;;;;;;;;5034750;28;20453;-59
2021/11/08 10:23:23;;;;;;;6.27;2.87;;;;;;;;;;5034684;28;20491;-59
2021/11/08 10:25:50;;;;;;;7.00;2.40;;;;;;;;;;5034690;28;20471;-58
2021/11/08 10:28:20;;;;;;;9.63;2.63;;;;;;;;;;5034480;28;20468;-58
2021/11/08 10:30:48;;;;;;;9.10;2.30;;;;;;;;;;5034487;28;20449;-58
2021/11/08 10:33:17;;;;;;;9.10;2.43;;;;;;;;;;5034400;28;20459;-58
2021/11/08 10:35:46;;;;;;;9.10;3.27;;;;;;;;;;5034116;28;20449;-59
2021/11/08 10:38:16;;;;;;;7.57;3.03;;;;;;;;;;5034578;28;20441;-59
2021/11/08 10:40:45;;;;;;;8.73;3.33;;;;;;;;;;5034445;28;20502;-59
2021/11/08 10:43:12;;;;;;;8.10;2.30;;;;;;;;;;5033939;28;20527;-58
2021/11/08 10:45:50;;;;;;;8.90;2.97;;;;;;;;;;5033931;28;20937;-59
2021/11/08 10:48:21;;;;;;;6.30;2.80;;;;;;;;;;5033714;28;20440;-58
2021/11/08 10:50:50;;;;;;;7.17;3.00;;;;;;;;;;5033749;28;20444;-58
2021/11/08 10:53:19;;;;;;;8.43;3.20;;;;;;;;;;5033966;28;20477;-58
2021/11/08 10:55:49;;;;;;;9.90;3.90;;;;;;;;;;5033887;28;20456;-59
2021/11/08 10:58:19;;;;;;;8.23;3.10;;;;;;;;;;5034076;28;20516;-57
2021/11/08 11:00:47;;;;;;;8.50;2.60;;;;;;;;;;5033869;28;20432;-56
2021/11/08 11:03:15;;;;;;;8.23;3.10;;;;;;;;;;5034419;28;20933;-58
2021/11/08 11:05:43;;;;;;;8.07;2.50;;;;;;;;;;5033845;28;20453;-58
2021/11/08 11:08:14;;;;;;;10.93;3.00;;;;;;;;;;5033526;28;20460;-57
2021/11/08 11:10:44;;;;;;;15.43;3.13;;;;;;;;;;5033383;28;20528;-58
2021/11/08 11:13:18;;;;;;;8.33;2.50;;;;;;;;;;5033659;28;20445;-57
2021/11/08 11:15:45;;;;;;;9.20;2.20;;;;;;;;;;5033540;28;20447;-57
2021/11/08 11:18:13;;;;;;;11.87;3.20;;;;;;;;;;5033340;28;20472;-57
2021/11/08 11:20:44;;;;;;;11.50;3.50;;;;;;;;;;5033745;28;20455;-57
2021/11/08 11:23:15;;;;;;;13.30;3.13;;;;;;;;;;5033292;28;20491;-57
2021/11/08 11:25:49;;;;;;;10.03;3.40;;;;;;;;;;5033639;28;20437;-58
2021/11/08 11:28:23;;;;;;;4.57;2.23;;;;;;;;;;5033473;28;20479;-60
2021/11/08 11:30:50;;;;;;;5.93;2.30;;;;;;;;;;5033514;28;20766;-59
2021/11/08 11:33:18;;;;;;;8.97;2.27;;;;;;;;;;5033580;28;20445;-58
2021/11/08 11:35:49;;;;;;;7.03;2.80;;;;;;;;;;5033764;28;20460;-58
2021/11/08 11:38:17;;;;;;;10.53;3.90;;;;;;;;;;5034133;28;20951;-58
2021/11/08 11:40:46;;;;;;;14.57;4.83;;;;;;;;;;5033562;28;20437;-61
2021/11/08 11:43:15;;;;;;;13.10;3.10;;;;;;;;;;5034132;28;20537;-58
2021/11/08 11:45:49;;;;;;;9.83;2.73;;;;;;;;;;5033977;28;20536;-58
2021/11/08 11:48:17;;;;;;;9.00;3.10;;;;;;;;;;5055024;22;21082;-63
2021/11/08 11:50:44;;;;;;;8.13;2.93;;;;;;;;;;5013458;28;20474;-64
2021/11/08 11:53:12;;;;;;;9.60;3.80;;;;;;;;;;5013582;28;20456;-64
2021/11/08 11:55:40;;;;;;;9.87;3.57;;;;;;;;;;5013192;28;20454;-63
2021/11/08 11:58:07;;;;;;;11.60;2.73;;;;;;;;;;5013388;28;20850;-63
2021/11/08 12:00:37;;;;;;;7.63;2.90;;;;;;;;;;5013392;28;20453;-62
2021/11/08 12:03:06;;;;;;;11.13;2.50;;;;;;;;;;5013412;28;20474;-64
2021/11/08 12:05:34;;;;;;;10.43;3.40;;;;;;;;;;5014014;28;20449;-63
2021/11/08 12:08:05;;;;;;;8.47;3.43;;;;;;;;;;5013880;28;20515;-61
2021/11/08 12:10:33;;;;;;;12.43;3.27;;;;;;;;;;5013345;28;20497;-63
2021/11/08 12:13:00;;;;;;;8.10;3.40;;;;;;;;;;5013289;28;20453;-62
2021/11/08 12:15:28;;;;;;;6.90;2.90;;;;;;;;;;5013114;28;20458;-62
2021/11/08 12:17:57;;;;;;;8.87;2.60;;;;;;;;;;5013152;28;20938;-63
2021/11/08 12:20:27;;;;;;;7.40;3.20;;;;;;;;;;5013154;28;20456;-64
2021/11/08 12:22:54;;;;;;;8.43;3.50;;;;;;;;;;5013599;28;20469;-63
2021/11/08 12:25:23;;;;;;;13.83;2.60;;;;;;;;;;5013640;28;20449;-63
2021/11/08 12:27:51;;;;;;;11.40;2.83;;;;;;;;;;5012910;28;20454;-63
2021/11/08 12:30:20;;;;;;;8.23;2.90;;;;;;;;;;5015920;28;20485;-63
2021/11/08 12:32:48;;;;;;;8.67;2.70;;;;;;;;;;5016689;28;20870;-62
2021/11/08 12:35:17;;;;;;;10.47;3.00;;;;;;;;;;5017551;28;20457;-62
2021/11/08 12:37:46;;;;;;;8.40;2.70;;;;;;;;;;5016940;28;20453;-63
2021/11/08 12:40:17;;;;;;;7.57;3.10;;;;;;;;;;5016774;28;20465;-63
2021/11/08 12:42:45;;;;;;;6.97;2.40;;;;;;;;;;5016769;28;20437;-63
2021/11/08 12:45:15;;;;;;;8.20;2.67;;;;;;;;;;5016697;28;20446;-62
2021/11/08 12:47:43;;;;;;;11.17;2.20;;;;;;;;;;5016889;28;20868;-61
2021/11/08 12:50:10;;;;;;;5.73;2.50;;;;;;;;;;5016086;28;20485;-61
2021/11/08 12:52:40;;;;;;;13.13;3.53;;;;;;;;;;5016277;28;20450;-63
2021/11/08 12:55:10;;;;;;;8.63;3.00;;;;;;;;;;5017019;28;20449;-63
2021/11/08 12:57:38;;;;;;;9.73;2.63;;;;;;;;;;5017229;28;20531;-60
2021/11/08 13:00:17;;;;;;;11.40;3.43;;;;;;;;;;5015845;28;20466;-58
2021/11/08 13:02:53;;;;;;;8.93;2.80;;;;;;;;;;5016016;28;20444;-63
2021/11/08 13:05:26;;;;;;;13.63;3.60;;;;;;;;;;5015477;28;20910;-62
2021/11/08 13:07:55;;;;;;;9.30;3.10;;;;;;;;;;5016564;28;20453;-62
2021/11/08 13:10:25;;;;;;;6.70;2.60;;;;;;;;;;5016805;28;20520;-62
2021/11/08 13:12:53;;;;;;;9.57;2.57;;;;;;;;;;5016369;28;20532;-60
2021/11/08 13:15:21;;;;;;;6.47;2.80;;;;;;;;;;5016323;28;20442;-61
2021/11/08 13:17:50;;;;;;;8.80;3.37;;;;;;;;;;5016468;28;20449;-61
2021/11/08 13:20:18;;;;;;;14.43;2.63;;;;;;;;;;5016061;28;20462;-63
2021/11/08 13:22:46;;;;;;;12.17;3.60;;;;;;;;;;5015792;28;20450;-65
2021/11/08 13:25:16;;;;;;;7.63;3.07;;;;;;;;;;5015707;28;20454;-62
2021/11/08 13:27:47;;;;;;;12.10;3.50;;;;;;;;;;5015794;28;20508;-62
2021/11/08 13:30:15;;;;;;;5.83;2.80;;;;;;;;;;5015388;28;20482;-62
2021/11/08 13:32:43;;;;;;;17.93;4.03;;;;;;;;;;5015461;28;20456;-60
2021/11/08 13:35:12;;;;;;;10.63;3.20;;;;;;;;;;5015651;28;20449;-63
2021/11/08 13:37:40;;;;;;;6.20;2.70;;;;;;;;;;5015701;28;20461;-61
2021/11/08 13:40:29;;;;;;;8.97;2.60;;;;;;;;;;5015151;28;20484;-62
2021/11/08 13:43:06;;;;;;;7.37;2.70;;;;;;;;;;5009591;28;20466;-62
2021/11/08 13:45:44;;;;;;;9.37;2.70;;;;;;;;;;5015622;28;20429;-59
2021/11/08 13:48:19;;;;;;;10.17;2.73;;;;;;;;;;5015340;28;20444;-62
2021/11/08 13:50:47;;;;;;;8.70;2.33;;;;;;;;;;5015314;28;20466;-61
2021/11/08 13:53:17;;;;;;;12.50;3.07;;;;;;;;;;5015557;28;20473;-62
2021/11/08 13:55:44;;;;;;;10.50;2.60;;;;;;;;;;5014858;28;20453;-62
2021/11/08 13:58:14;;;;;;;9.63;2.87;;;;;;;;;;5015103;28;20450;-64
2021/11/08 14:00:42;;;;;;;10.93;2.87;;;;;;;;;;5015137;28;20445;-61
2021/11/08 14:03:13;;;;;;;10.10;3.33;;;;;;;;;;5014612;28;20445;-62
2021/11/08 14:05:47;;;;;;;9.90;3.20;;;;;;;;;;5014979;28;20445;-62
2021/11/08 14:08:20;;;;;;;8.67;2.80;;;;;;;;;;5015916;28;20479;-62
2021/11/08 14:10:51;;;;;;;7.97;3.00;;;;;;;;;;5015144;28;20532;-62
2021/11/08 14:13:20;;;;;;;13.03;3.60;;;;;;;;;;5014963;28;20438;-62
2021/11/08 14:15:57;;;;;;;9.43;3.40;;;;;;;;;;5015197;28;20457;-62
2021/11/08 14:18:25;;;;;;;10.77;3.67;;;;;;;;;;5014678;28;20968;-61
2021/11/08 14:20:52;;;;;;;18.93;4.50;;;;;;;;;;5014866;28;20910;-61
2021/11/08 14:23:27;;;;;;;12.33;4.17;;;;;;;;;;5014954;28;20458;-62
2021/11/08 14:25:55;;;;;;;9.23;3.70;;;;;;;;;;5014675;28;20918;-61
2021/11/08 14:28:27;;;;;;;7.67;3.07;;;;;;;;;;5014577;28;20473;-61
2021/11/08 14:30:54;;;;;;;10.30;3.40;;;;;;;;;;5014593;28;20516;-61
2021/11/08 14:33:22;;;;;;;9.73;3.07;;;;;;;;;;5014735;28;20515;-62
2021/11/08 14:35:50;;;;;;;12.20;3.47;;;;;;;;;;5015464;28;20453;-61
2021/11/08 14:38:21;;;;;;;7.47;3.30;;;;;;;;;;5015685;28;20561;-62
2021/11/08 14:40:49;;;;;;;17.20;3.60;;;;;;;;;;5014939;28;20423;-62
2021/11/08 14:43:17;;;;;;;8.57;2.87;;;;;;;;;;5016359;28;20446;-62
2021/11/08 14:45:53;;;;;;;10.80;3.50;;;;;;;;;;5016925;28;20446;-61
2021/11/08 14:48:23;;;;;;;10.23;3.37;;;;;;;;;;5018273;28;20512;-61
2021/11/08 14:50:51;;;;;;;8.83;3.27;;;;;;;;;;5017129;28;20466;-60
2021/11/08 14:53:18;;;;;;;15.27;4.13;;;;;;;;;;5014484;28;20453;-61
2021/11/08 14:55:46;;;;;;;12.90;3.10;;;;;;;;;;5015192;28;20441;-60
2021/11/08 14:58:14;;;;;;;7.70;2.87;;;;;;;;;;5014250;28;20935;-61
2021/11/08 15:00:42;;;;;;;13.17;3.17;;;;;;;;;;5014159;28;20438;-62
2021/11/08 15:03:12;;;;;;;9.70;3.30;;;;;;;;;;5013561;28;20954;-62
2021/11/08 15:05:41;;;;;;;13.23;3.80;;;;;;;;;;5014302;28;20457;-61
2021/11/08 15:08:09;;;;;;;8.88;3.38;;;;;;;;;;5013716;28;20454;-62
2021/11/08 15:10:38;;;;;;;11.67;3.13;;;;;;;;;;5015538;28;20282;-60
2021/11/08 15:13:06;;;;;;;9.03;2.87;;;;;;;;;;5016045;28;20453;-61
2021/11/08 15:15:35;;;;;;;11.97;4.20;;;;;;;;;;5016604;28;20446;-60
2021/11/08 15:18:04;;;;;;;9.97;3.17;;;;;;;;;;5015444;28;20492;-60
2021/11/08 15:20:34;;;;;;;9.93;2.60;;;;;;;;;;5014873;28;20525;-61
2021/11/08 15:23:02;;;;;;;11.73;3.10;;;;;;;;;;5014178;28;20799;-60
2021/11/08 15:25:31;;;;;;;11.45;3.60;;;;;;;;;;5014601;28;20448;-61
2021/11/08 15:27:59;;;;;;;9.50;2.70;;;;;;;;;;5014168;28;20213;-60
2021/11/08 15:30:29;;;;;;;7.97;2.87;;;;;;;;;;5013339;28;20219;-63
2021/11/08 15:33:04;;;;;;;10.68;3.15;;;;;;;;;;5014130;28;20860;-63
2021/11/08 15:35:37;;;;;;;8.90;3.30;;;;;;;;;;5013930;28;20191;-62
2021/11/08 15:38:04;;;;;;;14.97;3.40;;;;;;;;;;5013788;28;20582;-62
2021/11/08 15:40:32;;;;;;;12.57;4.32;;;;;;;;;;5013426;28;20437;-62
2021/11/08 15:43:03;;;;;;;12.55;3.38;;;;;;;;;;5013315;28;20674;-62
2021/11/08 15:45:30;;;;;;;12.65;3.25;;;;;;;;;;5014010;28;20623;-61
2021/11/08 15:47:58;;;;;;;9.98;3.20;;;;;;;;;;5014614;28;20210;-62
2021/11/08 15:50:25;;;;;;;10.35;3.72;;;;;;;;;;5014302;28;20602;-62
2021/11/08 15:52:54;;;;;;;7.15;3.08;;;;;;;;;;5014409;28;20230;-62
2021/11/08 15:55:22;;;;;;;18.10;3.13;;;;;;;;;;5014552;28;20199;-62
2021/11/08 15:57:50;;;;;;;9.13;2.67;;;;;;;;;;5013877;28;20245;-63
2021/11/08 16:00:17;;;;;;;9.35;2.53;;;;;;;;;;5014037;28;20466;-62
2021/11/08 16:02:45;;;;;;;9.25;3.08;;;;;;;;;;5013660;28;20209;-63
2021/11/08 16:05:12;;;;;;;8.25;3.00;;;;;;;;;;5013987;28;20213;-61
2021/11/08 16:07:39;;;;;;;13.02;3.28;;;;;;;;;;5013250;28;20210;-62
2021/11/08 16:10:09;;;;;;;9.03;2.57;;;;;;;;;;5013172;28;20634;-62
2021/11/08 16:12:37;;;;;;;14.70;3.00;;;;;;;;;;5013260;28;20453;-62